Huvudsida
METAR-TAF:

METAR-TAF

Flygplatser :

Alta flygplats

Alta, Norge

latitud: 69-59N, longitud: 023-22E, höjd: 0 m

Aktuellt väderrapport

Denna rapport gjordes för 11 minuter sedan, klockan 13:50 UTC
Vind 10 kt från nordväst
Temperatur 15°C
Fuktighet 63%
Tryck 993 hPa
Sikt 10 km eller mer
Få moln på en höjd av 3800 ft
Brutna moln på en höjd av 7000 ft

METAR: ENAT 191350Z 31010KT 9999 FEW038 BKN070 15/08 Q0993 RMK WIND 700FT 31013KT

Tid: 16:01 (14:01 UTC)

Väderprognos

Denna rapport gjordes för 3 timmar och 1 minuter sedan, klockan 11:00 UTC
Prognos gäller från 19 kl. 12 UTC till 19 kl. 21 UTC
Vind 10 kt från nordväst
Sikt 10 km eller mer
Få moln på en höjd av 1500 ft
Spridda moln på en höjd av 3000 ft
Blir
från 19 kl. 17 UTC till 19 kl. 19 UTC
Vind 5 kt varierande vindriktning

TAF: ENAT 191100Z 1912/1921 32010KT 9999 FEW015 SCT030 BECMG 1917/1919 VRB05KT

Aktuella väderrapporter och prognoser från 4000 flygplatser (METAR- och TAF-rapporter).

De tillgängliga stationerna syns som gula och röda prickar på kartan.

För musen över prickarna för att se namnen på stationerna.

Klicka sedan för att få väderrapporter och prognoser.

För att ändra kartan: Klicka på de gröna knapparna med ett svart kors på för att zooma in; den gröna knappen med ett streck på för att zooma ut; eller på de gröna pilarna för angränsande kartor.


METAR-TAF: